Clearwater, Florida
Current Conditions -  °F | °C
As of 4:35 PM on Saturday 25 Oct 2014 (Local Time) from KCLW Reporting Station
Clear Clear  
Wind Chill: 73°   Ceiling: Unl
Heat Index: 73°   Visibility: 10mi
Dew Point: 50°   Wind: 10mph
Humidity: 44%   Direction: 330°NNW
Pressure: 29.95"   Gusts: NA
Location:  27.97°N, 82.8°W
Report Text: KCLW 252035Z AUTO 33009KT 290V350 10SM CLR 23/10 A2995 RMK AO2
Loading
Personal Weather Stations






























Interactive Weather Map New forecast layout! Learn more

10-Day Weather Forecast

Advertisements
Track Severe Weather on mobile